Time;durP1;ratioP1;P1;durP2;ratioP2;P2;SDS_P1;SDS_P2;PMS_P1;PMS_P2;Temp;Humidity;BMP_temperature;BMP_pressure;BME280_temperature;BME280_humidity;BME280_pressure;Samples;Min_cycle;Max_cycle;Signal;HPM_P1;HPM_P2
2021/08/19 00:01:20;;;;;;;3.60;2.92;;;20.40;66.70;;;;;;5113018;28;20654;-69
2021/08/19 00:03:46;;;;;;;3.75;2.75;;;20.40;66.70;;;;;;5113651;28;20177;-68
2021/08/19 00:06:11;;;;;;;3.67;2.80;;;20.40;66.70;;;;;;5113427;28;20169;-68
2021/08/19 00:08:37;;;;;;;4.15;2.63;;;20.30;66.60;;;;;;5112716;28;20181;-68
2021/08/19 00:11:04;;;;;;;2.80;2.60;;;20.40;66.70;;;;;;5113728;28;20204;-68
2021/08/19 00:13:29;;;;;;;3.45;2.45;;;20.30;66.70;;;;;;5113595;28;20185;-68
2021/08/19 00:15:56;;;;;;;4.03;2.90;;;20.30;66.70;;;;;;5113218;28;20184;-68
2021/08/19 00:18:22;;;;;;;2.85;2.45;;;20.30;66.70;;;;;;5113118;28;20709;-68
2021/08/19 00:20:48;;;;;;;2.97;2.40;;;20.30;66.60;;;;;;5113800;28;20200;-68
2021/08/19 00:23:13;;;;;;;2.60;2.40;;;20.30;66.70;;;;;;5112759;28;20695;-68
2021/08/19 00:25:39;;;;;;;2.83;2.40;;;20.30;66.70;;;;;;5113177;28;20169;-68
2021/08/19 00:28:04;;;;;;;2.63;2.42;;;20.30;66.80;;;;;;5113758;28;20184;-68
2021/08/19 00:30:30;;;;;;;3.30;2.60;;;20.30;66.70;;;;;;5112531;28;20165;-68
2021/08/19 00:32:55;;;;;;;3.05;2.75;;;20.30;66.70;;;;;;5113604;28;20637;-69
2021/08/19 00:35:21;;;;;;;2.60;2.40;;;20.30;66.70;;;;;;5112939;28;20686;-69
2021/08/19 00:37:46;;;;;;;3.92;2.75;;;20.30;66.70;;;;;;5112516;28;20299;-69
2021/08/19 00:40:12;;;;;;;3.70;3.17;;;20.30;66.70;;;;;;5113081;28;20258;-69
2021/08/19 00:42:38;;;;;;;3.28;2.90;;;20.30;66.70;;;;;;5112738;28;20234;-69
2021/08/19 00:45:05;;;;;;;2.92;2.72;;;20.30;66.70;;;;;;5112198;28;20176;-68
2021/08/19 00:47:31;;;;;;;2.67;2.45;;;20.30;66.70;;;;;;5112745;28;20268;-69
2021/08/19 00:50:00;;;;;;;2.80;2.60;;;20.30;66.70;;;;;;5112997;28;20250;-69
2021/08/19 00:52:26;;;;;;;3.10;2.75;;;20.30;66.80;;;;;;5112065;28;20188;-70
2021/08/19 00:54:52;;;;;;;2.65;2.45;;;20.30;66.80;;;;;;5094723;28;20538;-69
2021/08/19 00:57:17;;;;;;;4.30;2.50;;;20.30;66.80;;;;;;5094371;28;20216;-70
2021/08/19 00:59:43;;;;;;;3.00;2.70;;;20.30;66.80;;;;;;5094664;28;20172;-70
2021/08/19 01:02:08;;;;;;;3.33;3.03;;;20.30;67.70;;;;;;5094720;28;20173;-69
2021/08/19 01:04:36;;;;;;;3.85;3.28;;;20.30;66.80;;;;;;5111495;28;20198;-69
2021/08/19 01:07:02;;;;;;;3.58;2.72;;;20.30;66.80;;;;;;5112689;28;20177;-68
2021/08/19 01:09:28;;;;;;;2.63;2.42;;;20.30;66.80;;;;;;5112193;28;20287;-68
2021/08/19 01:11:54;;;;;;;3.47;2.83;;;20.30;66.80;;;;;;5112085;28;20205;-68
2021/08/19 01:14:19;;;;;;;2.83;2.63;;;20.30;66.90;;;;;;5112841;28;20211;-68
2021/08/19 01:16:45;;;;;;;2.90;2.60;;;20.30;66.80;;;;;;5112116;28;20213;-68
2021/08/19 01:19:15;;;;;;;2.92;2.63;;;20.30;66.90;;;;;;5111880;28;20240;-68
2021/08/19 01:21:41;;;;;;;3.97;2.97;;;20.20;66.80;;;;;;5112242;28;20294;-68
2021/08/19 01:24:07;;;;;;;2.85;2.65;;;20.30;66.80;;;;;;5112333;28;20224;-68
2021/08/19 01:26:32;;;;;;;3.50;2.80;;;20.30;66.80;;;;;;5111415;28;20258;-68
2021/08/19 01:28:59;;;;;;;2.88;2.58;;;20.20;66.70;;;;;;5112613;28;20640;-68
2021/08/19 01:31:25;;;;;;;2.70;2.40;;;20.20;66.80;;;;;;5112230;28;20196;-69
2021/08/19 01:33:51;;;;;;;3.45;2.97;;;20.20;66.80;;;;;;5111814;28;20275;-69
2021/08/19 01:36:16;;;;;;;2.63;2.42;;;20.20;66.80;;;;;;5112129;28;20647;-69
2021/08/19 01:38:42;;;;;;;2.70;2.50;;;20.20;66.80;;;;;;5111970;28;20475;-69
2021/08/19 01:41:08;;;;;;;2.58;2.10;;;20.20;66.80;;;;;;5111825;28;20165;-69
2021/08/19 01:43:35;;;;;;;3.80;2.80;;;20.20;66.80;;;;;;5112131;28;20189;-69
2021/08/19 01:46:01;;;;;;;2.83;2.53;;;20.30;66.90;;;;;;5112456;28;20234;-69
2021/08/19 01:48:27;;;;;;;3.58;2.60;;;20.20;66.80;;;;;;5111360;28;20534;-69
2021/08/19 01:50:52;;;;;;;3.47;2.58;;;20.20;66.90;;;;;;5112295;28;20173;-69
2021/08/19 01:53:18;;;;;;;3.03;2.72;;;20.20;66.80;;;;;;5112426;28;20188;-70
2021/08/19 01:55:44;;;;;;;3.10;2.80;;;20.30;67.00;;;;;;5111565;28;20277;-69
2021/08/19 01:58:10;;;;;;;4.05;2.80;;;20.20;66.90;;;;;;5112226;28;20240;-70
2021/08/19 02:00:36;;;;;;;2.72;2.53;;;20.20;66.80;;;;;;5111192;28;20172;-69
2021/08/19 02:03:02;;;;;;;2.80;2.60;;;20.20;66.90;;;;;;5111952;28;20275;-69
2021/08/19 02:05:28;;;;;;;3.17;2.60;;;20.20;67.00;;;;;;5111807;28;20208;-69
2021/08/19 02:07:53;;;;;;;2.67;2.47;;;20.20;66.90;;;;;;5111573;28;20185;-68
2021/08/19 02:10:19;;;;;;;3.03;2.63;;;20.20;66.90;;;;;;5112038;28;20180;-68
2021/08/19 02:12:45;;;;;;;3.03;2.72;;;20.20;67.00;;;;;;5112004;28;20512;-68
2021/08/19 02:15:11;;;;;;;2.67;2.47;;;20.20;66.90;;;;;;5111181;28;20162;-68
2021/08/19 02:17:37;;;;;;;3.05;2.67;;;20.20;67.00;;;;;;5111512;28;20250;-68
2021/08/19 02:20:03;;;;;;;2.90;2.60;;;20.20;66.90;;;;;;5111739;28;20173;-69
2021/08/19 02:22:28;;;;;;;2.63;2.42;;;20.20;66.90;;;;;;5111009;28;20185;-68
2021/08/19 02:24:54;;;;;;;2.80;2.60;;;20.20;66.90;;;;;;5111720;28;20220;-68
2021/08/19 02:27:19;;;;;;;2.83;2.63;;;20.20;66.90;;;;;;5111580;28;20530;-68
2021/08/19 02:29:45;;;;;;;2.58;2.38;;;20.20;67.00;;;;;;5113701;28;20177;-68
2021/08/19 02:32:10;;;;;;;2.90;2.67;;;20.20;66.90;;;;;;5115707;28;20173;-69
2021/08/19 02:34:36;;;;;;;2.70;2.50;;;20.20;67.00;;;;;;5115130;28;20181;-69
2021/08/19 02:37:01;;;;;;;3.08;2.80;;;20.20;67.00;;;;;;5114665;28;20212;-69
2021/08/19 02:39:27;;;;;;;2.30;2.10;;;20.20;67.00;;;;;;5115254;28;20627;-68
2021/08/19 02:41:52;;;;;;;2.67;2.47;;;20.20;67.00;;;;;;5115514;28;20192;-69
2021/08/19 02:44:18;;;;;;;3.35;2.67;;;20.20;67.00;;;;;;5114500;28;20644;-69
2021/08/19 02:46:43;;;;;;;2.95;2.28;;;20.20;67.00;;;;;;5114894;28;20173;-69
2021/08/19 02:49:09;;;;;;;3.00;2.30;;;20.20;67.00;;;;;;5115225;28;20207;-69
2021/08/19 02:51:34;;;;;;;2.70;2.50;;;20.20;67.00;;;;;;5114260;28;20192;-69
2021/08/19 02:54:00;;;;;;;3.05;2.50;;;20.20;67.00;;;;;;5115169;28;20192;-71
2021/08/19 02:56:27;;;;;;;2.33;2.13;;;20.10;66.90;;;;;;5114843;28;20169;-70
2021/08/19 02:58:52;;;;;;;2.70;2.42;;;20.10;66.90;;;;;;5114415;28;20253;-69
2021/08/19 03:01:18;;;;;;;2.50;2.30;;;20.20;67.00;;;;;;5115157;28;20328;-70
2021/08/19 03:03:43;;;;;;;2.80;2.60;;;20.20;67.00;;;;;;5114542;28;20181;-70
2021/08/19 03:06:09;;;;;;;2.50;2.28;;;20.20;67.00;;;;;;5114053;28;20642;-70
2021/08/19 03:08:34;;;;;;;2.50;2.30;;;20.20;67.00;;;;;;5114611;28;20173;-69
2021/08/19 03:11:00;;;;;;;2.40;2.20;;;20.20;67.00;;;;;;5114334;28;20636;-68
2021/08/19 03:13:25;;;;;;;2.80;2.60;;;20.20;67.00;;;;;;5114680;28;20169;-69
2021/08/19 03:15:51;;;;;;;4.05;2.75;;;20.20;67.00;;;;;;5114935;28;20173;-69
2021/08/19 03:18:16;;;;;;;2.75;2.55;;;20.20;67.00;;;;;;5113622;28;20563;-68
2021/08/19 03:20:42;;;;;;;2.60;2.40;;;20.10;67.00;;;;;;5114291;28;20625;-68
2021/08/19 03:23:07;;;;;;;2.67;2.47;;;20.20;67.00;;;;;;5114627;28;20324;-68
2021/08/19 03:25:33;;;;;;;2.47;2.28;;;20.10;67.00;;;;;;5113456;28;20275;-68
2021/08/19 03:28:02;;;;;;;2.97;2.67;;;20.20;67.10;;;;;;5114495;28;20230;-68
2021/08/19 03:30:28;;;;;;;2.60;2.40;;;20.10;67.00;;;;;;5114126;28;20533;-68
2021/08/19 03:32:54;;;;;;;2.92;2.63;;;20.10;67.00;;;;;;5113728;28;20168;-69
2021/08/19 03:35:19;;;;;;;2.30;2.15;;;20.10;67.00;;;;;;5114329;28;20165;-69
2021/08/19 03:37:45;;;;;;;2.60;2.40;;;20.10;67.00;;;;;;5114385;28;20578;-69
2021/08/19 03:40:11;;;;;;;2.70;2.50;;;20.10;67.00;;;;;;5112853;28;20564;-69
2021/08/19 03:42:38;;;;;;;3.08;2.80;;;20.10;67.00;;;;;;5113861;28;20646;-68
2021/08/19 03:45:06;;;;;;;4.38;2.80;;;20.20;67.10;;;;;;5114297;28;20240;-69
2021/08/19 03:47:31;;;;;;;2.60;2.40;;;20.10;67.00;;;;;;5113621;28;20181;-69
2021/08/19 03:49:57;;;;;;;2.35;2.15;;;20.20;67.10;;;;;;5114107;28;20169;-68
2021/08/19 03:52:22;;;;;;;2.60;2.40;;;20.10;67.00;;;;;;5113906;28;20635;-69
2021/08/19 03:54:48;;;;;;;2.63;2.42;;;20.10;67.10;;;;;;5113205;28;20540;-68
2021/08/19 03:57:13;;;;;;;2.60;2.40;;;20.20;67.20;;;;;;5113866;28;20217;-69
2021/08/19 03:59:39;;;;;;;2.97;2.28;;;20.10;67.00;;;;;;5113558;28;20272;-69
2021/08/19 04:02:04;;;;;;;2.28;2.10;;;20.10;67.00;;;;;;5113036;28;20173;-69
2021/08/19 04:04:30;;;;;;;2.72;2.53;;;20.20;67.10;;;;;;5113675;28;20189;-69
2021/08/19 04:06:55;;;;;;;3.00;2.53;;;20.10;67.00;;;;;;5113956;28;20180;-68
2021/08/19 04:09:21;;;;;;;3.10;2.75;;;20.20;67.10;;;;;;5112699;28;20169;-68
2021/08/19 04:11:46;;;;;;;2.70;2.50;;;20.10;67.10;;;;;;5114021;28;20600;-68
2021/08/19 04:14:12;;;;;;;2.90;2.70;;;20.10;67.10;;;;;;5113080;28;20169;-68
2021/08/19 04:16:37;;;;;;;3.90;2.78;;;20.10;67.10;;;;;;5113184;28;20231;-68
2021/08/19 04:19:03;;;;;;;2.50;2.30;;;20.10;67.10;;;;;;5113614;28;20227;-68
2021/08/19 04:21:28;;;;;;;3.65;3.08;;;20.10;67.10;;;;;;5112426;28;20180;-68
2021/08/19 04:23:54;;;;;;;3.17;2.88;;;20.10;67.10;;;;;;5113446;28;20536;-68
2021/08/19 04:26:20;;;;;;;2.60;2.40;;;20.10;67.10;;;;;;5113115;28;20495;-69
2021/08/19 04:28:45;;;;;;;2.85;2.65;;;20.10;67.10;;;;;;5112605;28;20181;-68
2021/08/19 04:31:11;;;;;;;2.88;2.50;;;20.10;67.10;;;;;;5113422;28;20173;-68
2021/08/19 04:33:36;;;;;;;2.83;2.55;;;20.10;67.10;;;;;;5112872;28;20180;-69
2021/08/19 04:36:02;;;;;;;2.60;2.40;;;20.10;67.10;;;;;;5112072;28;20594;-69
2021/08/19 04:38:27;;;;;;;2.88;2.65;;;20.10;68.00;;;;;;5113129;28;20217;-69
2021/08/19 04:40:55;;;;;;;2.85;2.65;;;20.10;67.10;;;;;;5113173;28;20335;-68
2021/08/19 04:43:21;;;;;;;2.67;2.47;;;20.10;67.20;;;;;;5112234;28;20169;-68
2021/08/19 04:45:47;;;;;;;3.13;2.67;;;20.10;67.10;;;;;;5113133;28;20180;-68
2021/08/19 04:48:13;;;;;;;2.83;2.63;;;20.10;67.20;;;;;;5112967;28;20234;-68
2021/08/19 04:50:38;;;;;;;3.00;2.70;;;20.10;67.20;;;;;;5112294;28;20261;-68
2021/08/19 04:53:04;;;;;;;3.05;2.35;;;20.10;67.10;;;;;;5111992;28;20272;-69
2021/08/19 04:55:30;;;;;;;3.03;2.80;;;20.10;67.10;;;;;;5112629;28;20177;-69
2021/08/19 04:57:55;;;;;;;2.80;2.60;;;20.10;67.20;;;;;;5112439;28;20499;-69
2021/08/19 05:00:21;;;;;;;3.00;2.50;;;20.10;67.10;;;;;;5112574;28;20168;-70
2021/08/19 05:02:46;;;;;;;2.88;2.63;;;20.10;67.20;;;;;;5112622;28;20268;-69
2021/08/19 05:05:12;;;;;;;2.67;2.47;;;20.10;67.20;;;;;;5112000;28;20699;-68
2021/08/19 05:07:40;;;;;;;3.30;3.00;;;20.10;67.20;;;;;;5112423;28;20181;-68
2021/08/19 05:10:06;;;;;;;2.70;2.50;;;20.10;67.20;;;;;;5112807;28;20165;-68
2021/08/19 05:12:31;;;;;;;2.65;2.45;;;20.10;67.20;;;;;;5111714;28;20242;-67
2021/08/19 05:14:57;;;;;;;3.17;2.88;;;20.10;67.20;;;;;;5112585;28;20615;-68
2021/08/19 05:17:22;;;;;;;2.47;2.28;;;20.10;67.20;;;;;;5112293;28;20270;-68
2021/08/19 05:19:48;;;;;;;3.10;2.83;;;20.10;67.10;;;;;;5112128;28;20169;-68
2021/08/19 05:22:13;;;;;;;2.92;2.38;;;20.10;67.20;;;;;;5112688;28;20244;-68
2021/08/19 05:24:39;;;;;;;2.67;2.47;;;20.10;67.10;;;;;;5111476;28;20717;-68
2021/08/19 05:27:05;;;;;;;2.95;2.65;;;20.10;67.20;;;;;;5112744;28;20207;-68
2021/08/19 05:29:30;;;;;;;2.63;2.42;;;20.10;67.20;;;;;;5112352;28;20197;-69
2021/08/19 05:31:59;;;;;;;3.25;2.80;;;20.10;67.10;;;;;;5111645;28;20312;-68
2021/08/19 05:34:24;;;;;;;2.75;2.50;;;20.10;67.20;;;;;;5112273;28;20165;-70
2021/08/19 05:36:50;;;;;;;4.65;2.92;;;20.10;67.10;;;;;;5112415;28;20551;-68
2021/08/19 05:39:15;;;;;;;4.07;2.42;;;20.10;67.30;;;;;;5111741;28;20639;-65
2021/08/19 05:41:41;;;;;;;3.03;2.72;;;20.10;67.20;;;;;;5112009;28;20181;-65
2021/08/19 05:44:06;;;;;;;3.28;2.83;;;20.10;67.40;;;;;;5112408;28;20643;-62
2021/08/19 05:46:32;;;;;;;4.68;2.72;;;20.10;67.40;;;;;;5111168;28;20180;-62
2021/08/19 05:48:57;;;;;;;3.40;2.75;;;20.20;67.40;;;;;;5112130;28;20172;-62
2021/08/19 05:51:23;;;;;;;5.28;3.22;;;20.20;68.20;;;;;;5111869;28;20204;-62
2021/08/19 05:53:48;;;;;;;3.25;2.30;;;20.20;67.20;;;;;;5111646;28;20242;-62
2021/08/19 05:56:14;;;;;;;5.40;3.00;;;20.20;67.40;;;;;;5112271;28;20169;-63
2021/08/19 05:58:39;;;;;;;3.67;2.50;;;20.20;67.40;;;;;;5111838;28;20709;-63
2021/08/19 06:01:05;;;;;;;3.88;3.22;;;20.20;67.50;;;;;;5111439;28;20169;-62
2021/08/19 06:03:30;;;;;;;4.70;3.05;;;20.30;67.60;;;;;;5112793;28;20517;-63
2021/08/19 06:05:56;;;;;;;2.92;2.58;;;20.30;67.50;;;;;;5120472;27;20168;-62
2021/08/19 06:08:21;;;;;;;4.75;2.60;;;20.30;67.60;;;;;;5135922;27;20176;-63
2021/08/19 06:10:47;;;;;;;9.75;3.70;;;20.20;67.50;;;;;;5122859;27;20184;-63
2021/08/19 06:13:12;;;;;;;5.43;3.00;;;20.30;67.40;;;;;;5134202;27;20176;-62
2021/08/19 06:15:38;;;;;;;3.63;2.90;;;20.30;67.40;;;;;;5115376;28;20293;-63
2021/08/19 06:18:03;;;;;;;4.70;2.90;;;20.30;67.30;;;;;;5125220;27;20747;-62
2021/08/19 06:20:29;;;;;;;5.20;3.40;;;20.20;67.20;;;;;;5115855;28;20181;-62
2021/08/19 06:22:55;;;;;;;5.20;2.72;;;20.20;67.20;;;;;;5115481;28;20184;-62
2021/08/19 06:25:21;;;;;;;4.63;2.85;;;20.20;67.20;;;;;;5116015;28;20165;-62
2021/08/19 06:27:46;;;;;;;4.10;3.13;;;20.20;67.10;;;;;;5130665;27;20287;-62
2021/08/19 06:30:12;;;;;;;3.00;2.75;;;20.20;67.10;;;;;;5136422;27;20225;-63
2021/08/19 06:32:38;;;;;;;3.38;2.65;;;20.20;67.10;;;;;;5136202;27;20485;-61
2021/08/19 06:35:04;;;;;;;5.57;2.90;;;20.20;67.20;;;;;;5135632;27;20173;-62
2021/08/19 06:37:29;;;;;;;3.50;2.95;;;20.20;67.20;;;;;;5135883;27;20243;-62
2021/08/19 06:39:55;;;;;;;5.07;3.30;;;20.20;67.20;;;;;;5136015;27;20506;-62
2021/08/19 06:42:20;;;;;;;3.00;2.60;;;20.20;67.20;;;;;;5135124;27;20222;-62
2021/08/19 06:44:46;;;;;;;4.40;3.22;;;20.30;67.30;;;;;;5121095;27;20169;-62
2021/08/19 06:47:11;;;;;;;3.97;3.00;;;20.30;67.30;;;;;;5115518;28;20177;-62
2021/08/19 06:49:39;;;;;;;3.55;2.95;;;20.30;67.30;;;;;;5114522;28;20226;-62
2021/08/19 06:52:05;;;;;;;4.75;3.08;;;20.30;67.40;;;;;;5115159;28;20184;-62
2021/08/19 06:54:30;;;;;;;4.55;3.00;;;20.30;67.50;;;;;;5115178;28;20166;-62
2021/08/19 06:56:56;;;;;;;3.70;3.10;;;20.30;67.50;;;;;;5114255;28;20189;-62
2021/08/19 06:59:21;;;;;;;5.95;3.10;;;20.30;67.40;;;;;;5114567;28;20180;-62
2021/08/19 07:01:47;;;;;;;5.82;4.13;;;20.30;67.60;;;;;;5115391;28;20174;-62
2021/08/19 07:04:12;;;;;;;5.03;3.38;;;20.30;67.60;;;;;;5114183;28;20203;-63
2021/08/19 07:06:38;;;;;;;5.45;3.55;;;20.30;67.50;;;;;;5114532;28;20658;-62
2021/08/19 07:09:04;;;;;;;4.78;3.13;;;20.30;67.50;;;;;;5114952;28;20215;-61
2021/08/19 07:11:29;;;;;;;7.10;3.40;;;20.30;67.60;;;;;;5113793;28;20252;-63
2021/08/19 07:13:55;;;;;;;8.10;3.17;;;20.30;67.60;;;;;;5114811;28;20193;-62
2021/08/19 07:16:20;;;;;;;5.90;3.20;;;20.30;67.50;;;;;;5113693;28;20188;-62
2021/08/19 07:18:46;;;;;;;5.70;3.10;;;20.30;67.60;;;;;;5114108;28;20204;-61
2021/08/19 07:21:11;;;;;;;5.28;3.45;;;20.30;67.70;;;;;;5114660;28;20177;-61
2021/08/19 07:23:37;;;;;;;3.88;2.97;;;20.30;67.70;;;;;;5114242;28;20252;-62
2021/08/19 07:26:02;;;;;;;6.63;3.15;;;20.30;67.70;;;;;;5113799;28;20623;-62
2021/08/19 07:28:28;;;;;;;5.72;3.20;;;20.30;67.80;;;;;;5114159;28;20254;-63
2021/08/19 07:30:53;;;;;;;3.33;2.92;;;20.30;67.70;;;;;;5114984;28;20305;-63
2021/08/19 07:33:19;;;;;;;4.43;3.20;;;20.30;67.70;;;;;;5113879;28;20173;-64
2021/08/19 07:35:49;;;;;;;4.82;3.00;;;20.30;67.70;;;;;;5114322;28;20548;-63
2021/08/19 07:38:17;;;;;;;5.28;3.22;;;20.30;67.70;;;;;;5113601;28;20213;-64
2021/08/19 07:40:43;;;;;;;5.38;3.47;;;20.30;67.80;;;;;;5114194;28;20242;-62
2021/08/19 07:43:08;;;;;;;4.50;3.10;;;20.30;67.60;;;;;;5115887;27;20185;-63
2021/08/19 07:45:34;;;;;;;7.55;3.47;;;20.30;67.70;;;;;;5133980;27;20164;-62
2021/08/19 07:48:15;;;;;;;4.35;3.58;;;20.30;67.70;;;;;;5134910;27;20184;-63
2021/08/19 07:50:41;;;;;;;4.65;3.17;;;20.40;68.10;;;;;;5134641;27;20172;-63
2021/08/19 07:53:06;;;;;;;9.48;3.80;;;20.40;68.10;;;;;;5134190;27;20643;-62
2021/08/19 07:55:32;;;;;;;4.10;3.67;;;20.40;68.10;;;;;;5134509;27;20168;-63
2021/08/19 07:57:58;;;;;;;5.18;3.17;;;20.40;68.00;;;;;;5134573;27;20220;-63
2021/08/19 08:00:31;;;;;;;4.22;3.30;;;20.40;68.10;;;;;;5133839;27;20228;-63
2021/08/19 08:02:57;;;;;;;4.35;3.00;;;20.40;68.10;;;;;;5134693;27;20168;-62
2021/08/19 08:05:23;;;;;;;4.72;3.20;;;20.40;67.90;;;;;;5134295;27;20488;-63
2021/08/19 08:07:52;;;;;;;7.25;3.53;;;20.50;68.00;;;;;;5134042;27;20180;-64
2021/08/19 08:10:17;;;;;;;3.92;3.10;;;20.50;67.90;;;;;;5134800;27;20244;-63
2021/08/19 08:12:43;;;;;;;4.93;3.22;;;20.50;67.90;;;;;;5134569;27;20226;-63
2021/08/19 08:15:09;;;;;;;6.00;3.33;;;20.50;67.90;;;;;;5133658;27;20191;-62
2021/08/19 08:17:35;;;;;;;4.80;3.55;;;20.50;67.90;;;;;;5133940;27;20290;-62
2021/08/19 08:20:01;;;;;;;5.43;3.78;;;20.50;67.90;;;;;;5134377;27;20466;-61
2021/08/19 08:22:26;;;;;;;3.65;3.28;;;20.60;68.00;;;;;;5133242;27;20651;-61
2021/08/19 08:24:52;;;;;;;4.93;3.42;;;20.50;68.10;;;;;;5133937;27;20224;-61
2021/08/19 08:27:17;;;;;;;5.00;3.38;;;20.50;68.00;;;;;;5133830;27;20175;-63
2021/08/19 08:29:43;;;;;;;7.30;3.63;;;20.50;68.10;;;;;;5121532;27;20195;-62
2021/08/19 08:32:10;;;;;;;5.63;3.70;;;20.50;68.10;;;;;;5118024;27;20504;-63
2021/08/19 08:34:39;;;;;;;5.22;3.50;;;20.50;68.10;;;;;;5132975;27;20221;-63
2021/08/19 08:37:04;;;;;;;7.05;3.95;;;20.50;68.10;;;;;;5123453;27;20205;-63
2021/08/19 08:39:32;;;;;;;3.75;3.40;;;20.50;67.90;;;;;;5113142;28;20692;-62
2021/08/19 08:41:57;;;;;;;4.70;3.20;;;20.50;68.00;;;;;;5112425;28;20173;-63
2021/08/19 08:44:25;;;;;;;3.75;3.45;;;20.50;67.90;;;;;;5113022;28;20184;-63
2021/08/19 08:46:50;;;;;;;4.10;3.70;;;20.50;67.90;;;;;;5113132;28;20281;-63
2021/08/19 08:49:16;;;;;;;3.55;3.25;;;20.50;67.90;;;;;;5094179;28;20628;-63
2021/08/19 08:51:46;;;;;;;4.50;3.47;;;20.50;68.10;;;;;;5094362;28;20181;-62
2021/08/19 08:54:12;;;;;;;4.03;3.63;;;20.50;68.20;;;;;;5095114;28;20624;-62
2021/08/19 08:56:37;;;;;;;4.07;3.45;;;20.40;68.10;;;;;;5111970;28;20180;-63
2021/08/19 08:59:03;;;;;;;3.72;3.35;;;20.40;68.10;;;;;;5118189;27;20286;-63
2021/08/19 09:01:28;;;;;;;3.20;2.97;;;20.40;68.10;;;;;;5114573;27;20274;-63
2021/08/19 09:03:56;;;;;;;3.70;3.40;;;20.40;68.10;;;;;;5093718;28;20254;-63
2021/08/19 09:06:35;;;;;;;3.30;3.00;;;20.40;68.10;;;;;;5094438;28;20185;-63
2021/08/19 09:09:00;;;;;;;3.30;3.00;;;20.40;68.00;;;;;;5112530;28;20615;-63
2021/08/19 09:11:26;;;;;;;7.10;3.70;;;20.50;68.10;;;;;;5093384;28;20170;-62
2021/08/19 09:13:51;;;;;;;3.65;3.28;;;20.40;68.10;;;;;;5077349;28;20642;-62
2021/08/19 09:16:18;;;;;;;5.75;3.70;;;20.40;68.10;;;;;;5094011;28;20173;-62
2021/08/19 09:18:44;;;;;;;4.50;3.50;;;20.40;68.00;;;;;;5111182;28;20213;-63
2021/08/19 09:21:17;;;;;;;5.10;3.28;;;20.40;67.90;;;;;;5112506;28;20169;-62
2021/08/19 09:23:42;;;;;;;3.88;3.42;;;20.50;68.00;;;;;;5111298;28;20225;-62
2021/08/19 09:26:09;;;;;;;4.60;3.70;;;20.50;68.00;;;;;;5112267;28;20471;-63
2021/08/19 09:28:34;;;;;;;4.03;3.13;;;20.40;67.90;;;;;;5112092;28;20245;-61
2021/08/19 09:31:09;;;;;;;3.53;3.17;;;20.50;68.00;;;;;;5111541;28;20215;-63
2021/08/19 09:33:39;;;;;;;4.28;3.58;;;20.40;68.00;;;;;;5111858;28;20257;-63
2021/08/19 09:36:08;;;;;;;4.63;2.95;;;20.40;68.00;;;;;;5098836;28;20168;-63
2021/08/19 09:38:40;;;;;;;3.58;3.28;;;20.40;68.00;;;;;;5131201;27;20208;-64
2021/08/19 09:41:19;;;;;;;5.40;3.55;;;20.40;68.00;;;;;;5132681;27;20634;-63
2021/08/19 09:43:48;;;;;;;4.60;3.63;;;20.40;68.10;;;;;;5132497;27;20203;-60
2021/08/19 09:46:16;;;;;;;5.90;3.55;;;20.50;68.10;;;;;;5132206;28;20345;-63
2021/08/19 09:48:45;;;;;;;5.00;3.28;;;20.50;68.10;;;;;;5132615;28;20256;-63
2021/08/19 09:51:13;;;;;;;4.80;3.58;;;20.50;68.00;;;;;;5132919;28;20184;-64
2021/08/19 09:53:50;;;;;;;5.43;3.17;;;20.50;68.00;;;;;;5131821;28;20183;-67
2021/08/19 09:56:29;;;;;;;5.90;3.50;;;20.50;68.10;;;;;;5132739;28;20168;-68
2021/08/19 09:58:55;;;;;;;3.47;3.17;;;20.50;68.00;;;;;;5132076;28;20212;-66
2021/08/19 10:01:21;;;;;;;4.40;3.00;;;20.50;68.10;;;;;;5132516;28;20279;-67
2021/08/19 10:03:46;;;;;;;6.00;3.55;;;20.50;68.10;;;;;;5097520;28;20290;-66
2021/08/19 10:06:13;;;;;;;5.00;3.40;;;20.60;68.20;;;;;;5131973;28;20169;-67
2021/08/19 10:08:39;;;;;;;4.40;3.35;;;20.50;68.10;;;;;;5132438;28;20255;-67
2021/08/19 10:11:04;;;;;;;6.25;3.90;;;20.50;68.20;;;;;;5132350;28;20259;-67
2021/08/19 10:13:30;;;;;;;3.67;3.00;;;20.50;68.30;;;;;;5095929;28;20259;-62
2021/08/19 10:15:57;;;;;;;3.60;3.30;;;20.50;68.30;;;;;;5096808;28;20207;-61
2021/08/19 10:18:25;;;;;;;5.20;3.45;;;20.50;68.30;;;;;;5113785;28;20673;-62
2021/08/19 10:21:04;;;;;;;7.43;3.60;;;20.50;68.40;;;;;;5131630;28;20312;-69
2021/08/19 10:23:30;;;;;;;6.95;3.55;;;20.50;68.40;;;;;;5131557;28;20678;-69
2021/08/19 10:26:09;;;;;;;4.43;3.92;;;20.50;68.40;;;;;;5097199;28;20255;-69
2021/08/19 10:28:52;;;;;;;6.78;3.55;;;20.50;68.50;;;;;;5131342;28;20172;-68
2021/08/19 10:31:36;;;;;;;5.55;3.25;;;20.50;68.50;;;;;;5132070;28;20267;-70
2021/08/19 10:34:02;;;;;;;7.60;3.70;;;20.40;69.30;;;;;;5131242;28;20233;-68
2021/08/19 10:36:30;;;;;;;7.97;3.78;;;20.50;68.60;;;;;;5124413;28;20201;-68
2021/08/19 10:39:17;;;;;;;5.60;3.40;;;20.50;68.70;;;;;;5111758;28;20213;-68
2021/08/19 10:41:43;;;;;;;6.32;3.25;;;20.50;68.60;;;;;;5110169;28;20313;-68
2021/08/19 10:44:09;;;;;;;5.03;3.40;;;20.40;68.50;;;;;;5111358;28;20185;-68
2021/08/19 10:46:42;;;;;;;5.20;3.28;;;20.40;68.60;;;;;;5111152;28;20659;-68
2021/08/19 10:49:07;;;;;;;6.00;3.35;;;20.40;68.50;;;;;;5110800;28;20261;-68
2021/08/19 10:51:33;;;;;;;4.65;3.35;;;20.40;68.50;;;;;;5096835;28;20569;-68
2021/08/19 10:53:58;;;;;;;6.00;3.20;;;20.40;68.40;;;;;;5114928;28;20716;-69
2021/08/19 10:56:41;;;;;;;5.72;3.10;;;20.40;68.20;;;;;;5095731;28;20631;-68
2021/08/19 10:59:30;;;;;;;6.53;3.67;;;20.40;68.20;;;;;;5115076;28;20192;-68
2021/08/19 11:01:55;;;;;;;4.22;3.20;;;20.40;68.30;;;;;;5114985;28;20165;-69
2021/08/19 11:04:50;;;;;;;5.68;3.05;;;20.40;68.30;;;;;;5114018;28;20184;-68
2021/08/19 11:07:43;;;;;;;4.63;3.47;;;20.40;68.30;;;;;;5097132;28;20181;-68
2021/08/19 11:10:09;;;;;;;6.65;3.78;;;20.30;68.30;;;;;;5114197;28;20227;-69
2021/08/19 11:12:36;;;;;;;4.07;3.58;;;20.30;68.40;;;;;;5114656;28;20170;-68
2021/08/19 11:15:02;;;;;;;4.07;2.88;;;20.30;68.50;;;;;;5096778;28;20184;-68
2021/08/19 11:17:27;;;;;;;4.97;3.70;;;20.30;68.50;;;;;;5113667;28;20205;-68
2021/08/19 11:19:53;;;;;;;4.10;3.22;;;20.30;68.50;;;;;;5096486;28;20646;-68
2021/08/19 11:22:20;;;;;;;3.78;3.47;;;20.40;68.60;;;;;;5114899;28;20165;-69
2021/08/19 11:24:46;;;;;;;3.50;3.20;;;20.30;68.60;;;;;;5113826;28;20691;-67
2021/08/19 11:27:11;;;;;;;6.10;3.47;;;20.30;68.60;;;;;;5114941;28;20177;-69
2021/08/19 11:29:37;;;;;;;5.22;3.25;;;20.30;68.60;;;;;;5114426;28;20177;-69
2021/08/19 11:32:08;;;;;;;5.03;3.90;;;20.30;68.60;;;;;;5113768;28;20208;-69
2021/08/19 11:34:34;;;;;;;4.80;3.17;;;20.30;68.50;;;;;;5114266;28;20231;-69
2021/08/19 11:36:59;;;;;;;4.13;3.75;;;20.30;68.60;;;;;;5125950;27;20646;-68
2021/08/19 11:39:28;;;;;;;4.68;3.40;;;20.30;68.60;;;;;;5134215;27;20168;-68
2021/08/19 11:42:01;;;;;;;3.70;3.38;;;20.30;68.60;;;;;;5135045;27;20172;-68
2021/08/19 11:44:27;;;;;;;4.20;3.30;;;20.30;68.50;;;;;;5134083;27;20180;-68
2021/08/19 11:47:03;;;;;;;4.85;3.60;;;20.30;68.50;;;;;;5134771;27;20172;-68
2021/08/19 11:49:29;;;;;;;3.95;3.50;;;20.30;68.50;;;;;;5134172;27;20587;-69
2021/08/19 11:52:02;;;;;;;5.07;3.70;;;20.40;68.40;;;;;;5134117;27;20251;-69
2021/08/19 11:54:40;;;;;;;3.67;3.30;;;20.40;68.40;;;;;;5134380;27;20639;-69
2021/08/19 11:57:06;;;;;;;4.72;3.17;;;20.40;68.40;;;;;;5134722;27;20250;-71
2021/08/19 11:59:32;;;;;;;4.85;3.65;;;20.40;68.30;;;;;;5115423;27;20634;-68
2021/08/19 12:01:58;;;;;;;3.15;2.83;;;20.40;68.30;;;;;;5134781;27;20230;-68
2021/08/19 12:04:30;;;;;;;3.35;3.05;;;20.40;68.30;;;;;;5134232;27;20252;-68
2021/08/19 12:06:57;;;;;;;5.03;3.15;;;20.40;68.30;;;;;;5133826;27;20179;-67
2021/08/19 12:09:22;;;;;;;4.65;3.30;;;20.40;68.20;;;;;;5134146;27;20176;-68
2021/08/19 12:11:49;;;;;;;3.58;3.13;;;20.40;68.20;;;;;;5134204;27;20172;-67
2021/08/19 12:14:14;;;;;;;4.65;3.20;;;20.40;68.10;;;;;;5115486;27;20173;-68
2021/08/19 12:16:47;;;;;;;3.65;3.35;;;20.40;68.10;;;;;;5115257;27;20520;-68
2021/08/19 12:19:21;;;;;;;3.35;3.05;;;20.40;68.20;;;;;;5134162;27;20177;-67
2021/08/19 12:21:52;;;;;;;3.78;3.47;;;20.40;68.20;;;;;;5133422;27;20176;-67
2021/08/19 12:24:21;;;;;;;3.83;3.45;;;20.40;68.30;;;;;;5133635;27;20220;-67
2021/08/19 12:27:02;;;;;;;3.45;3.03;;;20.40;68.30;;;;;;5133159;27;20579;-67
2021/08/19 12:29:28;;;;;;;3.63;3.33;;;20.40;68.40;;;;;;5133688;27;20168;-68
2021/08/19 12:31:54;;;;;;;3.60;3.30;;;20.40;68.30;;;;;;5133594;27;20187;-68
2021/08/19 12:34:20;;;;;;;3.80;3.50;;;20.40;68.40;;;;;;5132695;27;20173;-68
2021/08/19 12:36:46;;;;;;;4.05;3.58;;;20.40;68.40;;;;;;5123669;27;20177;-69
2021/08/19 12:39:22;;;;;;;3.63;3.33;;;20.40;68.40;;;;;;5113390;28;20177;-68
2021/08/19 12:41:49;;;;;;;4.13;3.80;;;20.40;68.40;;;;;;5112593;28;20189;-68
2021/08/19 12:44:20;;;;;;;4.47;3.50;;;20.40;68.40;;;;;;5113062;28;20176;-68
2021/08/19 12:46:49;;;;;;;4.03;3.60;;;20.40;68.30;;;;;;5112924;28;20263;-68